Seabourn Quest — C6YZ5 — position and weather

sailwx.info

Track history (hours):
 
Tides and Currents Weather Stations Pressure Air Temp Water Temp Dewpoint Dewpoint Depression Visibility Wind Speed Wind Dir Waves Ship Positions

Seabourn Quest

Last reported at 2016-Jul-01 03:20 UTC. Time now 2016-Jul-02 00:15 UTC.
Position N 69°19' E 017°59'.

Length 198 m; draft 6.7 m.

Type: Ship. MMSI: 311038900.

Date/timePositionNaut miles runAvg speedWind from/ knotsBaromVisibWave heightAir tempDewpointWater temp
2016-Jul-01 03:20N 69°19' E 017°59'7 9.4
2016-Jul-01 02:33N 69°12' E 018°01'1111.6
2016-Jul-01 01:34N 69°07' E 017°32'84 4.3
2016-Jun-30 06:09N 68°13' E 014°34'0 0.0
2016-Jun-30 05:32N 68°13' E 014°34'5 5.2
2016-Jun-30 04:32N 68°08' E 014°30'1111.8
2016-Jun-30 03:33N 67°58' E 014°14'1312.1
2016-Jun-30 02:30N 67°49' E 013°53'1311.7
2016-Jun-30 01:25N 67°39' E 013°31'7212.2
2016-Jun-29 19:32N 66°44' E 011°34'1212.3
2016-Jun-29 18:33N 66°34' E 011°16'  
2016-Jun-26 12:33N 58°42' E 004°44'1413.6
2016-Jun-26 11:33N 58°32' E 005°01'1413.5
2016-Jun-26 10:33N 58°23' E 005°21'1313.0
2016-Jun-26 09:32N 58°14' E 005°39'1313.2
2016-Jun-26 08:33N 58°06' E 005°58'1414.4
2016-Jun-26 07:33N 57°56' E 006°18'1312.9
2016-Jun-26 06:33N 57°48' E 006°37'1514.8
2016-Jun-26 05:33N 57°46' E 007°04'9318.5
2016-Jun-26 00:30N 57°49' E 009°59'1818.7
2016-Jun-25 23:33N 57°48' E 010°33'1716.9
2016-Jun-25 22:33N 57°40' E 011°01'1817.6
2016-Jun-25 21:33N 57°28' E 011°25'1717.5
2016-Jun-25 20:33N 57°12' E 011°36'1817.6
2016-Jun-25 19:33N 56°55' E 011°47'1817.7
2016-Jun-25 18:33N 56°38' E 011°56'2017.8
2016-Jun-25 17:26N 56°19' E 012°04'1617.7
2016-Jun-25 16:33N 56°10' E 012°27'1716.9
2016-Jun-25 15:33N 55°56' E 012°44'1414.0
2016-Jun-25 14:33N 55°42' E 012°37'1 0.7
2016-Jun-25 13:33N 55°42' E 012°36'0 0.0
2016-Jun-25 12:33N 55°42' E 012°36'0 0.0
2016-Jun-25 11:31N 55°42' E 012°36'0 0.0
2016-Jun-25 10:34N 55°42' E 012°36'0 0.0
2016-Jun-25 09:32N 55°42' E 012°36'0 0.0
2016-Jun-25 08:31N 55°42' E 012°36'0 0.0
2016-Jun-25 07:33N 55°42' E 012°36'0 0.0
2016-Jun-25 06:33N 55°42' E 012°36'0 0.0
2016-Jun-25 05:33N 55°42' E 012°36'0 0.0
2016-Jun-25 04:33N 55°42' E 012°36'2 1.7
2016-Jun-25 03:33N 55°43' E 012°38'9 9.1
2016-Jun-25 02:33N 55°34' E 012°42'1413.8
2016-Jun-25 01:33N 55°21' E 012°40'1515.0
2016-Jun-25 00:33N 55°16' E 013°05'1916.3
2016-Jun-24 23:22N 55°14' E 013°39'1315.6
2016-Jun-24 22:31N 55°13' E 014°02'1314.0
2016-Jun-24 21:33N 55°18' E 014°24'1515.4
2016-Jun-24 20:33N 55°28' E 014°44'1514.9
2016-Jun-24 19:33N 55°36' E 015°06'1514.7
2016-Jun-24 18:33N 55°44' E 015°29'1514.9
2016-Jun-24 17:33N 55°51' E 015°52'28114.8
2016-Jun-23 22:34N 59°15' E 021°51'1515.0
2016-Jun-23 21:34N 59°24' E 022°14'1814.8
2016-Jun-23 20:21N 59°33' E 022°45'1214.9
2016-Jun-23 19:31N 59°36' E 023°09'1414.9
2016-Jun-23 18:33N 59°40' E 023°36'1615.0
2016-Jun-23 17:31N 59°44' E 024°06'1615.2
2016-Jun-23 16:30N 59°49' E 024°35'14 1.1
2016-Jun-23 03:32N 59°58' E 024°57'3912.9
2016-Jun-23 00:32N 59°59' E 026°14'1313.8
2016-Jun-22 23:33N 60°01' E 026°40'1313.5
2016-Jun-22 22:33N 60°00' E 027°07'1414.1
2016-Jun-22 21:33N 60°08' E 027°31'1313.2
2016-Jun-22 20:33N 60°11' E 027°57'1717.5
2016-Jun-22 19:33N 60°04' E 028°29'1717.4
2016-Jun-22 18:33N 60°02' E 029°04'2612.9
2016-Jun-22 16:32N 59°56' E 029°54'9 8.7
2016-Jun-22 15:33N 59°57' E 030°11'0 0.2
2016-Jun-22 14:31N 59°57' E 030°12'0 0.0
2016-Jun-22 13:32N 59°57' E 030°12'0 0.0
2016-Jun-22 12:33N 59°57' E 030°12'0 0.0
2016-Jun-22 11:32N 59°57' E 030°12'0 0.0
2016-Jun-22 10:25N 59°57' E 030°12'0 0.0
2016-Jun-22 09:31N 59°57' E 030°12'0 0.0
2016-Jun-22 08:33N 59°57' E 030°12'0 0.0
2016-Jun-22 07:32N 59°57' E 030°12'0 0.0
2016-Jun-22 06:32N 59°57' E 030°12'0 0.0
2016-Jun-22 05:33N 59°57' E 030°12'0 0.0
2016-Jun-22 04:33N 59°57' E 030°12'0 0.0
2016-Jun-22 03:33N 59°57' E 030°12'0 0.0
2016-Jun-22 02:33N 59°57' E 030°12'0 0.0
2016-Jun-22 01:33N 59°57' E 030°12'0 0.0
2016-Jun-22 00:32N 59°57' E 030°12'0 0.0
2016-Jun-21 23:33N 59°57' E 030°12'0 0.0
2016-Jun-21 22:32N 59°57' E 030°12'0 0.0
2016-Jun-21 21:31N 59°57' E 030°12'0 0.0
2016-Jun-21 20:31N 59°57' E 030°12'0 0.0
2016-Jun-21 19:32N 59°57' E 030°12'0 0.0
2016-Jun-21 18:32N 59°57' E 030°12'0 0.0
2016-Jun-21 17:31N 59°57' E 030°12'0 0.0
2016-Jun-21 16:31N 59°57' E 030°12'0 0.0
2016-Jun-21 15:31N 59°57' E 030°12'0 0.0
2016-Jun-21 14:31N 59°57' E 030°12'0 0.0
2016-Jun-21 13:33N 59°57' E 030°12'0 0.0
2016-Jun-21 12:33N 59°57' E 030°12'0 0.0
2016-Jun-21 11:32N 59°57' E 030°12'0 0.0
2016-Jun-21 10:28N 59°57' E 030°12'0 0.0
2016-Jun-21 09:33N 59°57' E 030°12'0 0.0
2016-Jun-21 08:31N 59°57' E 030°12'0 0.0
2016-Jun-21 07:32N 59°57' E 030°12'0 0.0
2016-Jun-21 06:32N 59°57' E 030°12'0 0.0
2016-Jun-21 04:33N 59°57' E 030°12'0 0.0
2016-Jun-21 03:33N 59°57' E 030°12'  
Track history (hours):
 
Tides and Currents Weather Stations Pressure Air Temp Water Temp Dewpoint Dewpoint Depression Visibility Wind Speed Wind Dir Waves Ship Positions

Seabourn Quest

Last reported at 2016-Jul-01 03:20 UTC. Time now 2016-Jul-02 00:15 UTC.
Position N 69°19' E 017°59'.

Length 198 m; draft 6.7 m.

Type: Ship. MMSI: 311038900.

Date/timePositionNaut miles runAvg speedWind from/ knotsBaromVisibWave heightAir tempDewpointWater temp
2016-Jul-01 03:20N 69°19' E 017°59'7 9.4
2016-Jul-01 02:33N 69°12' E 018°01'1111.6
2016-Jul-01 01:34N 69°07' E 017°32'84 4.3
2016-Jun-30 06:09N 68°13' E 014°34'0 0.0
2016-Jun-30 05:32N 68°13' E 014°34'5 5.2
2016-Jun-30 04:32N 68°08' E 014°30'1111.8
2016-Jun-30 03:33N 67°58' E 014°14'1312.1
2016-Jun-30 02:30N 67°49' E 013°53'1311.7
2016-Jun-30 01:25N 67°39' E 013°31'7212.2
2016-Jun-29 19:32N 66°44' E 011°34'1212.3
2016-Jun-29 18:33N 66°34' E 011°16'  
2016-Jun-26 12:33N 58°42' E 004°44'1413.6
2016-Jun-26 11:33N 58°32' E 005°01'1413.5
2016-Jun-26 10:33N 58°23' E 005°21'1313.0
2016-Jun-26 09:32N 58°14' E 005°39'1313.2
2016-Jun-26 08:33N 58°06' E 005°58'1414.4
2016-Jun-26 07:33N 57°56' E 006°18'1312.9
2016-Jun-26 06:33N 57°48' E 006°37'1514.8
2016-Jun-26 05:33N 57°46' E 007°04'9318.5
2016-Jun-26 00:30N 57°49' E 009°59'1818.7
2016-Jun-25 23:33N 57°48' E 010°33'1716.9
2016-Jun-25 22:33N 57°40' E 011°01'1817.6
2016-Jun-25 21:33N 57°28' E 011°25'1717.5
2016-Jun-25 20:33N 57°12' E 011°36'1817.6
2016-Jun-25 19:33N 56°55' E 011°47'1817.7
2016-Jun-25 18:33N 56°38' E 011°56'2017.8
2016-Jun-25 17:26N 56°19' E 012°04'1617.7
2016-Jun-25 16:33N 56°10' E 012°27'1716.9
2016-Jun-25 15:33N 55°56' E 012°44'1414.0
2016-Jun-25 14:33N 55°42' E 012°37'1 0.7
2016-Jun-25 13:33N 55°42' E 012°36'0 0.0
2016-Jun-25 12:33N 55°42' E 012°36'0 0.0
2016-Jun-25 11:31N 55°42' E 012°36'0 0.0
2016-Jun-25 10:34N 55°42' E 012°36'0 0.0
2016-Jun-25 09:32N 55°42' E 012°36'0 0.0
2016-Jun-25 08:31N 55°42' E 012°36'0 0.0
2016-Jun-25 07:33N 55°42' E 012°36'0 0.0
2016-Jun-25 06:33N 55°42' E 012°36'0 0.0
2016-Jun-25 05:33N 55°42' E 012°36'0 0.0
2016-Jun-25 04:33N 55°42' E 012°36'2 1.7
2016-Jun-25 03:33N 55°43' E 012°38'9 9.1
2016-Jun-25 02:33N 55°34' E 012°42'1413.8
2016-Jun-25 01:33N 55°21' E 012°40'1515.0
2016-Jun-25 00:33N 55°16' E 013°05'1916.3
2016-Jun-24 23:22N 55°14' E 013°39'1315.6
2016-Jun-24 22:31N 55°13' E 014°02'1314.0
2016-Jun-24 21:33N 55°18' E 014°24'1515.4
2016-Jun-24 20:33N 55°28' E 014°44'1514.9
2016-Jun-24 19:33N 55°36' E 015°06'1514.7
2016-Jun-24 18:33N 55°44' E 015°29'1514.9
2016-Jun-24 17:33N 55°51' E 015°52'28114.8
2016-Jun-23 22:34N 59°15' E 021°51'1515.0
2016-Jun-23 21:34N 59°24' E 022°14'1814.8
2016-Jun-23 20:21N 59°33' E 022°45'1214.9
2016-Jun-23 19:31N 59°36' E 023°09'1414.9
2016-Jun-23 18:33N 59°40' E 023°36'1615.0
2016-Jun-23 17:31N 59°44' E 024°06'1615.2
2016-Jun-23 16:30N 59°49' E 024°35'14 1.1
2016-Jun-23 03:32N 59°58' E 024°57'3912.9
2016-Jun-23 00:32N 59°59' E 026°14'1313.8
2016-Jun-22 23:33N 60°01' E 026°40'1313.5
2016-Jun-22 22:33N 60°00' E 027°07'1414.1
2016-Jun-22 21:33N 60°08' E 027°31'1313.2
2016-Jun-22 20:33N 60°11' E 027°57'1717.5
2016-Jun-22 19:33N 60°04' E 028°29'1717.4
2016-Jun-22 18:33N 60°02' E 029°04'2612.9
2016-Jun-22 16:32N 59°56' E 029°54'9 8.7
2016-Jun-22 15:33N 59°57' E 030°11'0 0.2
2016-Jun-22 14:31N 59°57' E 030°12'0 0.0
2016-Jun-22 13:32N 59°57' E 030°12'0 0.0
2016-Jun-22 12:33N 59°57' E 030°12'0 0.0
2016-Jun-22 11:32N 59°57' E 030°12'0 0.0
2016-Jun-22 10:25N 59°57' E 030°12'0 0.0
2016-Jun-22 09:31N 59°57' E 030°12'0 0.0
2016-Jun-22 08:33N 59°57' E 030°12'0 0.0
2016-Jun-22 07:32N 59°57' E 030°12'0 0.0
2016-Jun-22 06:32N 59°57' E 030°12'0 0.0
2016-Jun-22 05:33N 59°57' E 030°12'0 0.0
2016-Jun-22 04:33N 59°57' E 030°12'0 0.0
2016-Jun-22 03:33N 59°57' E 030°12'0 0.0
2016-Jun-22 02:33N 59°57' E 030°12'0 0.0
2016-Jun-22 01:33N 59°57' E 030°12'0 0.0
2016-Jun-22 00:32N 59°57' E 030°12'0 0.0
2016-Jun-21 23:33N 59°57' E 030°12'0 0.0
2016-Jun-21 22:32N 59°57' E 030°12'0 0.0
2016-Jun-21 21:31N 59°57' E 030°12'0 0.0
2016-Jun-21 20:31N 59°57' E 030°12'0 0.0
2016-Jun-21 19:32N 59°57' E 030°12'0 0.0
2016-Jun-21 18:32N 59°57' E 030°12'0 0.0
2016-Jun-21 17:31N 59°57' E 030°12'0 0.0
2016-Jun-21 16:31N 59°57' E 030°12'0 0.0
2016-Jun-21 15:31N 59°57' E 030°12'0 0.0
2016-Jun-21 14:31N 59°57' E 030°12'0 0.0
2016-Jun-21 13:33N 59°57' E 030°12'0 0.0
2016-Jun-21 12:33N 59°57' E 030°12'0 0.0
2016-Jun-21 11:32N 59°57' E 030°12'0 0.0
2016-Jun-21 10:28N 59°57' E 030°12'0 0.0
2016-Jun-21 09:33N 59°57' E 030°12'0 0.0
2016-Jun-21 08:31N 59°57' E 030°12'0 0.0
2016-Jun-21 07:32N 59°57' E 030°12'0 0.0
2016-Jun-21 06:32N 59°57' E 030°12'0 0.0
2016-Jun-21 04:33N 59°57' E 030°12'0 0.0
2016-Jun-21 03:33N 59°57' E 030°12'  

Dump ship's entire track history